Time;durP1;ratioP1;P1;durP2;ratioP2;P2;SDS_P1;SDS_P2;PMS_P1;PMS_P2;Temp;Humidity;BMP_temperature;BMP_pressure;BME280_temperature;BME280_humidity;BME280_pressure;Samples;Min_cycle;Max_cycle;Signal;HPM_P1;HPM_P2
2021/05/08 00:01:30;;;;;;;5.28;2.03;;;;;;;34.20;16.30;94009.59;5055134;28;20060;-49
2021/05/08 00:03:57;;;;;;;4.18;1.80;;;;;;;34.23;16.68;94006.75;5056927;28;20397;-50
2021/05/08 00:06:24;;;;;;;3.20;1.83;;;;;;;33.94;16.64;94009.78;5056674;28;20048;-50
2021/05/08 00:08:51;;;;;;;4.43;1.73;;;;;;;33.81;16.88;94008.31;5054557;28;20051;-48
2021/05/08 00:11:18;;;;;;;4.55;1.73;;;;;;;33.85;17.09;94015.19;5057211;28;20053;-48
2021/05/08 00:13:46;;;;;;;5.10;1.80;;;;;;;34.27;16.29;94018.22;5057904;28;20045;-46
2021/05/08 00:16:13;;;;;;;5.50;1.85;;;;;;;33.51;16.91;94018.69;5058060;28;20354;-48
2021/05/08 00:18:40;;;;;;;5.93;2.13;;;;;;;33.36;17.44;94023.13;5035459;28;20060;-50
2021/05/08 00:21:07;;;;;;;7.43;1.70;;;;;;;33.41;17.14;94036.09;5054207;28;20048;-49
2021/05/08 00:23:35;;;;;;;2.85;1.50;;;;;;;33.32;17.58;94049.56;5038805;28;20061;-49
2021/05/08 00:26:03;;;;;;;3.67;1.77;;;;;;;33.67;16.71;94048.31;5056256;28;20159;-49
2021/05/08 00:28:30;;;;;;;3.05;1.50;;;;;;;33.24;16.34;94056.38;5055938;28;20049;-48
2021/05/08 00:30:59;;;;;;;3.65;1.77;;;;;;;32.96;16.84;94072.38;5056250;28;20045;-47
2021/05/08 00:33:26;;;;;;;3.72;2.00;;;;;;;32.92;16.62;94066.34;5036579;28;20502;-48
2021/05/08 00:35:54;;;;;;;6.80;1.90;;;;;;;34.14;15.46;94066.38;5056034;28;20055;-46
2021/05/08 00:38:21;;;;;;;3.95;1.90;;;;;;;32.64;16.99;94078.03;5055751;28;20049;-49
2021/05/08 00:40:48;;;;;;;4.30;2.28;;;;;;;32.49;17.63;94083.88;5055030;28;20064;-46
2021/05/08 00:43:16;;;;;;;4.97;2.45;;;;;;;32.36;17.80;94091.25;5056106;28;20045;-48
2021/05/08 00:45:44;;;;;;;7.63;3.28;;;;;;;32.49;18.12;94092.00;5055913;28;20049;-54
2021/05/08 00:48:13;;;;;;;6.72;3.00;;;;;;;32.16;18.78;94104.19;5036975;28;20048;-49
2021/05/08 00:50:42;;;;;;;5.03;3.58;;;;;;;32.18;18.33;94096.41;5038108;28;20068;-51
2021/05/08 00:53:11;;;;;;;5.60;3.20;;;;;;;32.12;18.73;94114.34;5038142;28;20049;-49
2021/05/08 00:55:39;;;;;;;5.90;3.58;;;;;;;32.17;18.58;94113.81;5055660;28;20080;-50
2021/05/08 00:58:08;;;;;;;6.25;3.78;;;;;;;32.25;18.96;94128.63;5036331;28;20049;-52
2021/05/08 01:00:37;;;;;;;6.40;3.25;;;;;;;32.03;19.13;94144.72;5053327;28;20044;-46
2021/05/08 01:03:06;;;;;;;6.00;3.17;;;;;;;32.14;18.59;94150.56;5052216;28;20055;-48
2021/05/08 01:05:33;;;;;;;4.50;3.30;;;;;;;32.79;18.29;94157.59;5036052;28;20053;-48
2021/05/08 01:08:05;;;;;;;5.57;3.50;;;;;;;32.42;18.48;94176.06;5053688;28;20040;-49
2021/05/08 01:10:33;;;;;;;5.93;3.55;;;;;;;32.39;18.75;94189.69;5054773;28;20056;-47
2021/05/08 01:13:02;;;;;;;11.15;4.40;;;;;;;32.21;18.85;94199.03;5056245;28;20052;-46
2021/05/08 01:15:29;;;;;;;7.05;4.30;;;;;;;31.67;19.61;94182.72;5055397;28;20397;-47
2021/05/08 01:17:57;;;;;;;7.93;4.90;;;;;;;30.72;20.78;94191.16;5053796;28;20048;-47
2021/05/08 01:20:25;;;;;;;8.07;5.50;;;;;;;30.82;20.62;94195.53;5055299;28;20052;-47
2021/05/08 01:22:56;;;;;;;8.40;5.88;;;;;;;31.13;20.79;94204.84;5053921;28;20041;-48
2021/05/08 01:25:25;;;;;;;7.53;5.97;;;;;;;31.31;20.34;94214.50;5055224;28;20045;-49
2021/05/08 01:27:56;;;;;;;8.45;5.60;;;;;;;31.40;20.26;94222.75;5055356;28;20071;-53
2021/05/08 01:30:31;;;;;;;9.38;6.20;;;;;;;31.14;20.51;94224.50;5019840;28;20044;-48
2021/05/08 01:33:00;;;;;;;9.48;6.30;;;;;;;31.28;20.48;94237.69;5052204;28;20049;-47
2021/05/08 01:35:29;;;;;;;8.43;6.72;;;;;;;30.23;21.64;94247.59;5052508;28;20045;-49
2021/05/08 01:37:57;;;;;;;7.38;6.07;;;;;;;31.12;20.62;94251.91;5049799;28;20052;-48
2021/05/08 01:40:36;;;;;;;8.88;6.13;;;;;;;30.97;20.60;94251.50;5054837;28;20044;-46
2021/05/08 01:43:07;;;;;;;7.78;6.20;;;;;;;29.83;21.90;94252.91;5054379;28;20064;-47
2021/05/08 01:45:34;;;;;;;8.00;6.43;;;;;;;31.08;20.57;94256.63;5055021;28;20049;-48
2021/05/08 01:48:07;;;;;;;7.78;5.90;;;;;;;30.60;21.03;94249.94;5053871;28;20128;-47
2021/05/08 01:50:34;;;;;;;6.65;5.97;;;;;;;30.86;20.72;94245.53;5054785;28;20088;-49
2021/05/08 01:53:02;;;;;;;7.88;6.30;;;;;;;30.21;21.48;94260.72;5054891;28;20057;-48
2021/05/08 01:55:29;;;;;;;6.53;5.47;;;;;;;30.56;20.76;94261.97;5035220;28;20079;-52
2021/05/08 01:58:02;;;;;;;7.30;5.07;;;;;;;30.57;20.78;94271.56;5052091;28;20053;-49
2021/05/08 02:00:36;;;;;;;5.28;4.55;;;;;;;30.65;20.49;94283.75;5036983;28;20059;-48
2021/05/08 02:03:05;;;;;;;5.53;4.93;;;;;;;30.62;20.44;94279.19;5054849;28;20049;-45
2021/05/08 02:05:40;;;;;;;6.45;4.90;;;;;;;30.48;20.50;94285.63;5053658;28;20036;-46
2021/05/08 02:08:13;;;;;;;4.30;3.90;;;;;;;30.43;20.36;94294.19;5054367;28;20060;-47
2021/05/08 02:10:43;;;;;;;5.70;4.38;;;;;;;30.50;20.36;94299.44;5054507;28;20045;-48
2021/05/08 02:13:13;;;;;;;4.13;3.63;;;;;;;30.69;20.16;94304.09;5054460;28;20053;-45
2021/05/08 02:15:41;;;;;;;5.18;4.20;;;;;;;30.36;20.29;94305.88;5036973;28;20053;-47
2021/05/08 02:18:09;;;;;;;6.38;3.70;;;;;;;30.20;20.54;94299.66;5052673;28;20052;-49
2021/05/08 02:20:39;;;;;;;6.13;3.53;;;;;;;29.78;20.99;94299.19;5055027;28;20048;-46
2021/05/08 02:23:09;;;;;;;3.92;3.60;;;;;;;30.98;19.49;94306.97;5056838;28;20053;-48
2021/05/08 02:25:37;;;;;;;4.90;3.47;;;;;;;30.01;20.24;94318.03;5041067;28;20051;-49
2021/05/08 02:28:05;;;;;;;5.93;3.40;;;;;;;30.65;19.76;94316.13;5040624;28;20368;-47
2021/05/08 02:30:34;;;;;;;5.72;2.90;;;;;;;31.05;19.22;94326.91;5039427;28;20053;-47
2021/05/08 02:33:02;;;;;;;3.33;3.03;;;;;;;29.52;20.73;94318.84;5058447;28;20057;-50
2021/05/08 02:35:31;;;;;;;3.85;2.70;;;;;;;30.39;19.77;94326.59;5039570;28;20056;-47
2021/05/08 02:37:59;;;;;;;4.22;3.00;;;;;;;30.16;19.74;94339.34;5058128;28;20040;-47
2021/05/08 02:40:31;;;;;;;3.65;2.70;;;;;;;29.39;20.30;94343.59;5056899;28;20053;-51
2021/05/08 02:43:00;;;;;;;4.70;2.53;;;;;;;29.25;20.63;94359.97;5052260;28;20045;-48
2021/05/08 02:45:28;;;;;;;2.67;2.40;;;;;;;30.26;19.47;94360.75;5058845;28;20048;-49
2021/05/08 02:47:55;;;;;;;3.55;3.10;;;;;;;28.94;20.95;94371.91;5058120;28;20487;-49
2021/05/08 02:50:24;;;;;;;3.35;2.90;;;;;;;29.50;20.00;94367.72;5038636;28;20049;-48
2021/05/08 02:52:54;;;;;;;4.10;2.60;;;;;;;30.01;19.72;94374.63;5057501;28;20119;-50
2021/05/08 02:55:22;;;;;;;2.60;2.38;;;;;;;29.50;20.01;94380.41;5057688;28;20490;-47
2021/05/08 02:57:50;;;;;;;3.88;2.47;;;;;;;29.66;19.65;94394.00;5058004;28;20095;-47
2021/05/08 03:00:19;;;;;;;2.90;2.55;;;;;;;28.84;20.70;94393.09;5055544;28;20380;-49
2021/05/08 03:02:46;;;;;;;2.70;2.40;;;;;;;29.15;20.25;94403.94;5040304;28;20045;-48
2021/05/08 03:05:14;;;;;;;2.35;2.10;;;;;;;29.94;19.62;94409.78;5054840;28;20051;-48
2021/05/08 03:07:43;;;;;;;2.20;2.00;;;;;;;28.76;20.42;94402.41;5053143;28;20049;-49
2021/05/08 03:10:11;;;;;;;3.58;2.00;;;;;;;28.51;20.40;94412.69;5057104;28;20061;-48
2021/05/08 03:12:39;;;;;;;2.58;2.22;;;;;;;28.09;21.33;94401.13;5040796;28;20045;-46
2021/05/08 03:15:08;;;;;;;1.88;1.70;;;;;;;28.05;21.03;94415.75;5057962;28;20053;-54
2021/05/08 03:17:35;;;;;;;2.78;1.85;;;;;;;27.85;21.85;94424.34;5056575;28;20059;-48
2021/05/08 03:20:03;;;;;;;2.03;1.65;;;;;;;27.30;22.21;94427.69;5038366;28;20061;-48
2021/05/08 03:22:32;;;;;;;3.35;1.90;;;;;;;28.04;21.01;94433.78;5054927;28;20053;-54
2021/05/08 03:25:00;;;;;;;1.50;1.40;;;;;;;27.46;22.21;94440.66;5057914;28;20041;-46
2021/05/08 03:27:28;;;;;;;2.78;1.50;;;;;;;27.43;22.00;94435.31;5040010;28;20040;-47
2021/05/08 03:29:55;;;;;;;1.70;1.30;;;;;;;28.22;20.90;94437.09;5057014;28;20048;-48
2021/05/08 03:32:22;;;;;;;1.83;1.38;;;;;;;27.97;21.53;94452.66;5054291;28;20052;-47
2021/05/08 03:34:51;;;;;;;1.70;1.30;;;;;;;27.58;21.86;94458.22;5057191;28;20367;-46
2021/05/08 03:37:19;;;;;;;1.50;1.30;;;;;;;28.46;20.81;94462.28;5055576;28;20052;-46
2021/05/08 03:39:47;;;;;;;1.45;1.17;;;;;;;27.31;22.13;94468.72;5052732;28;20052;-48
2021/05/08 03:42:14;;;;;;;1.45;1.17;;;;;;;27.89;21.49;94473.44;5057788;28;20064;-53
2021/05/08 03:44:41;;;;;;;1.27;1.17;;;;;;;27.29;22.14;94474.47;5057611;28;20048;-47
2021/05/08 03:47:09;;;;;;;1.88;1.38;;;;;;;26.94;22.41;94472.66;5057875;28;20060;-46
2021/05/08 03:49:38;;;;;;;3.75;1.77;;;;;;;27.54;21.91;94482.41;5055241;28;20052;-49
2021/05/08 03:52:06;;;;;;;2.13;1.50;;;;;;;27.64;21.79;94481.63;5057380;28;20055;-51
2021/05/08 03:54:33;;;;;;;3.78;1.80;;;;;;;27.07;22.62;94491.06;5052392;28;20053;-47
2021/05/08 03:57:00;;;;;;;2.53;1.80;;;;;;;27.13;22.28;94490.25;5055151;28;20052;-45
2021/05/08 03:59:28;;;;;;;2.92;2.50;;;;;;;27.30;22.13;94494.03;5044269;28;20819;-45
2021/05/08 04:01:55;;;;;;;3.28;2.03;;;;;;;27.42;22.03;94501.66;5057357;28;20056;-49
2021/05/08 04:04:22;;;;;;;2.92;2.40;;;;;;;27.21;22.53;94515.16;5055438;28;20340;-48
2021/05/08 04:06:49;;;;;;;2.88;2.58;;;;;;;27.35;22.16;94515.13;5057014;28;20064;-46
2021/05/08 04:09:16;;;;;;;2.38;2.17;;;;;;;27.03;22.72;94510.59;5056038;28;20048;-48
2021/05/08 04:11:44;;;;;;;2.80;2.60;;;;;;;26.51;22.84;94516.75;5046520;28;20079;-50
2021/05/08 04:14:11;;;;;;;2.22;2.03;;;;;;;27.33;21.84;94506.69;5057095;28;20040;-45
2021/05/08 04:16:38;;;;;;;2.35;2.15;;;;;;;26.66;22.33;94518.28;5056975;28;20044;-46
2021/05/08 04:19:05;;;;;;;2.38;2.17;;;;;;;26.35;22.95;94517.16;5055661;28;20053;-52
2021/05/08 04:21:33;;;;;;;2.53;2.25;;;;;;;26.83;22.30;94530.94;5056693;28;20056;-48
2021/05/08 04:24:00;;;;;;;2.58;2.38;;;;;;;26.33;22.76;94525.56;5057071;28;20391;-54
2021/05/08 04:26:28;;;;;;;2.40;2.20;;;;;;;25.86;22.83;94541.94;5054783;28;20075;-47
2021/05/08 04:28:55;;;;;;;2.20;2.00;;;;;;;25.99;23.10;94545.78;5053852;28;20041;-50
2021/05/08 04:31:22;;;;;;;2.40;2.20;;;;;;;27.45;21.39;94551.88;5056791;28;20060;-46
2021/05/08 04:33:49;;;;;;;2.45;2.25;;;;;;;26.41;22.59;94551.22;5056715;28;20464;-46
2021/05/08 04:36:17;;;;;;;3.75;2.05;;;;;;;26.40;22.45;94549.72;5055718;28;20049;-46
2021/05/08 04:38:44;;;;;;;2.38;1.95;;;;;;;26.76;22.30;94555.06;5052360;28;20045;-46
2021/05/08 04:41:13;;;;;;;2.38;1.98;;;;;;;27.56;20.98;94551.81;5056441;28;20500;-47
2021/05/08 04:43:41;;;;;;;2.10;1.90;;;;;;;26.72;22.10;94554.28;5055685;28;20056;-46
2021/05/08 04:46:08;;;;;;;2.45;1.70;;;;;;;27.56;21.33;94562.56;5056368;28;20056;-47
2021/05/08 04:48:36;;;;;;;2.10;1.45;;;;;;;27.41;21.16;94553.81;5055907;28;20049;-46
2021/05/08 04:51:03;;;;;;;2.03;1.65;;;;;;;27.25;21.64;94550.78;5056276;28;20061;-46
2021/05/08 04:53:30;;;;;;;1.73;1.50;;;;;;;26.79;21.84;94543.56;5056682;28;20059;-47
2021/05/08 04:55:59;;;;;;;1.90;1.70;;;;;;;26.66;22.24;94547.78;5038337;28;20048;-50
2021/05/08 04:58:26;;;;;;;2.53;1.73;;;;;;;27.08;21.73;94548.94;5055921;28;20498;-47
2021/05/08 05:00:53;;;;;;;1.52;1.30;;;;;;;26.90;21.70;94549.69;5055493;28;20186;-45
2021/05/08 05:03:20;;;;;;;2.65;1.30;;;;;;;26.77;22.01;94561.94;5055624;28;20060;-46
2021/05/08 05:05:48;;;;;;;2.85;1.50;;;;;;;27.31;21.05;94563.41;5055575;28;20353;-45
2021/05/08 05:08:19;;;;;;;1.63;1.40;;;;;;;26.12;22.79;94571.06;5052076;28;20052;-48
2021/05/08 05:10:55;;;;;;;3.50;1.50;;;;;;;26.56;22.40;94565.41;5055431;28;20363;-49
2021/05/08 05:13:23;;;;;;;1.75;1.30;;;;;;;26.33;22.29;94565.75;5056027;28;20057;-50
2021/05/08 05:15:51;;;;;;;1.70;1.23;;;;;;;27.03;21.71;94579.56;5055449;28;20048;-45
2021/05/08 05:18:18;;;;;;;1.80;1.40;;;;;;;26.97;21.69;94581.84;5053100;28;20045;-45
2021/05/08 05:20:45;;;;;;;1.42;1.20;;;;;;;27.71;20.61;94595.53;5055275;28;20052;-47
2021/05/08 05:23:14;;;;;;;1.23;1.10;;;;;;;26.36;22.06;94602.53;5054548;28;20049;-45
2021/05/08 05:25:41;;;;;;;2.00;1.25;;;;;;;27.70;20.63;94599.38;5055259;28;20057;-46
2021/05/08 05:28:25;;;;;;;3.50;1.98;;;;;;;26.30;22.38;94593.31;5054867;28;20052;-45
2021/05/08 05:30:53;;;;;;;3.83;2.08;;;;;;;27.70;20.57;94602.06;5053735;28;20075;-50
2021/05/08 05:33:21;;;;;;;3.50;2.10;;;;;;;27.17;21.27;94606.38;5053554;28;20049;-45
2021/05/08 05:35:49;;;;;;;3.22;1.83;;;;;;;26.77;21.59;94602.16;5036532;28;20040;-45
2021/05/08 05:38:17;;;;;;;1.65;1.20;;;;;;;26.09;22.20;94603.97;5037629;28;20049;-45
2021/05/08 05:40:45;;;;;;;1.92;1.20;;;;;;;28.75;19.25;94618.78;5054855;28;20049;-45
2021/05/08 05:43:13;;;;;;;1.35;0.90;;;;;;;27.01;21.02;94604.09;5055041;28;20418;-46
2021/05/08 05:45:40;;;;;;;0.95;0.82;;;;;;;25.66;22.66;94609.16;5054978;28;20362;-46
2021/05/08 05:48:07;;;;;;;1.92;1.17;;;;;;;25.78;22.16;94610.78;5054859;28;20328;-46
2021/05/08 05:50:39;;;;;;;1.70;1.17;;;;;;;26.32;22.49;94617.06;5054620;28;20064;-46
2021/05/08 05:53:06;;;;;;;1.20;1.00;;;;;;;27.19;22.14;94616.75;5037765;28;20047;-51
2021/05/08 05:55:34;;;;;;;1.10;0.90;;;;;;;27.26;20.92;94611.34;5053216;28;20048;-49
2021/05/08 05:58:02;;;;;;;2.92;1.08;;;;;;;26.34;21.84;94631.63;5054125;28;20048;-57
2021/05/08 06:00:29;;;;;;;2.05;1.10;;;;;;;26.10;22.26;94627.72;5054333;28;20068;-50
2021/05/08 06:02:56;;;;;;;1.40;1.23;;;;;;;26.64;21.77;94636.66;5054635;28;20041;-52
2021/05/08 06:05:23;;;;;;;1.60;1.40;;;;;;;26.79;22.04;94634.72;5054605;28;20049;-47
2021/05/08 06:07:51;;;;;;;1.50;1.25;;;;;;;26.58;22.49;94640.09;5054516;28;20045;-48
2021/05/08 06:10:18;;;;;;;1.20;1.10;;;;;;;26.78;21.93;94638.56;5054210;28;20053;-53
2021/05/08 06:12:45;;;;;;;1.38;1.10;;;;;;;26.81;21.65;94648.53;5037084;28;20052;-44
2021/05/08 06:15:13;;;;;;;1.52;1.05;;;;;;;27.24;21.14;94643.19;5054775;28;20056;-48
2021/05/08 06:17:41;;;;;;;1.42;1.08;;;;;;;25.99;22.50;94642.97;5052040;28;20045;-52
2021/05/08 06:20:09;;;;;;;1.92;1.23;;;;;;;26.73;21.58;94641.63;5053535;28;20052;-47
2021/05/08 06:22:36;;;;;;;1.67;1.10;;;;;;;27.35;20.75;94652.00;5054555;28;20355;-49
2021/05/08 06:25:04;;;;;;;1.20;0.90;;;;;;;26.56;21.51;94658.47;5054508;28;20056;-46
2021/05/08 06:27:31;;;;;;;1.67;0.95;;;;;;;27.14;20.92;94660.06;5055042;28;20052;-50
2021/05/08 06:29:58;;;;;;;1.80;1.02;;;;;;;26.32;22.07;94676.00;5054760;28;20052;-53
2021/05/08 06:32:25;;;;;;;1.20;1.00;;;;;;;26.42;21.97;94673.38;5054723;28;20063;-47
2021/05/08 06:34:53;;;;;;;3.33;1.00;;;;;;;27.17;21.67;94670.03;5055153;28;20049;-51
2021/05/08 06:37:20;;;;;;;1.55;0.90;;;;;;;26.91;21.54;94674.59;5054778;28;20053;-47
2021/05/08 06:39:47;;;;;;;1.45;1.30;;;;;;;28.47;19.56;94667.38;5054593;28;20040;-47
2021/05/08 06:42:15;;;;;;;2.00;1.60;;;;;;;26.41;21.87;94674.53;5054262;28;20041;-51
2021/05/08 06:44:42;;;;;;;2.58;1.70;;;;;;;26.99;21.36;94676.16;5055053;28;20060;-50
2021/05/08 06:47:14;;;;;;;2.58;1.50;;;;;;;27.05;20.98;94665.78;5053702;28;20045;-46
2021/05/08 06:49:43;;;;;;;3.35;1.45;;;;;;;26.79;21.06;94660.78;5051757;28;20057;-49
2021/05/08 06:52:11;;;;;;;2.00;1.80;;;;;;;27.03;20.87;94660.81;5055062;28;20045;-47
2021/05/08 06:54:38;;;;;;;2.80;1.70;;;;;;;26.57;21.45;94662.69;5054782;28;20049;-47
2021/05/08 06:57:06;;;;;;;2.25;1.83;;;;;;;27.28;20.90;94665.41;5052341;28;20060;-46
2021/05/08 06:59:33;;;;;;;2.20;1.90;;;;;;;27.27;20.86;94664.63;5054499;28;20064;-51
2021/05/08 07:02:00;;;;;;;1.60;1.40;;;;;;;26.74;21.39;94669.97;5054191;28;20048;-49
2021/05/08 07:04:27;;;;;;;2.33;1.60;;;;;;;26.85;21.42;94668.09;5054191;28;20064;-48
2021/05/08 07:06:54;;;;;;;3.22;1.63;;;;;;;27.46;20.91;94676.88;5054807;28;20041;-49
2021/05/08 07:09:22;;;;;;;1.98;1.75;;;;;;;25.87;22.58;94672.00;5058373;28;20055;-49
2021/05/08 07:11:49;;;;;;;3.42;1.88;;;;;;;26.42;21.66;94684.09;5039978;28;20048;-47
2021/05/08 07:14:16;;;;;;;2.65;1.85;;;;;;;27.43;20.46;94683.03;5057730;28;20064;-46
2021/05/08 07:16:43;;;;;;;3.17;1.50;;;;;;;27.19;20.25;94686.50;5057722;28;20072;-47
2021/05/08 07:19:10;;;;;;;3.45;1.60;;;;;;;26.32;21.66;94682.13;5054192;28;20053;-48
2021/05/08 07:21:38;;;;;;;2.42;1.80;;;;;;;27.48;19.99;94679.94;5057408;28;20371;-46
2021/05/08 07:24:06;;;;;;;4.30;1.92;;;;;;;25.56;22.82;94690.19;5057298;28;20064;-48
2021/05/08 07:26:34;;;;;;;3.47;2.10;;;;;;;26.48;21.28;94689.84;5057525;28;20045;-48
2021/05/08 07:29:01;;;;;;;2.90;2.45;;;;;;;26.47;21.34;94693.66;5057913;28;20053;-48
2021/05/08 07:31:28;;;;;;;2.55;2.30;;;;;;;26.83;21.36;94699.88;5057548;28;20052;-48
2021/05/08 07:33:55;;;;;;;2.35;2.10;;;;;;;27.25;21.24;94693.00;5057262;28;20366;-48
2021/05/08 07:36:22;;;;;;;2.88;2.53;;;;;;;26.95;21.21;94694.13;5057145;28;20048;-48
2021/05/08 07:38:50;;;;;;;3.00;2.50;;;;;;;28.35;19.84;94692.00;5057212;28;20049;-47
2021/05/08 07:41:17;;;;;;;2.55;2.28;;;;;;;27.07;21.16;94697.63;5056105;28;20329;-46
2021/05/08 07:43:44;;;;;;;2.40;2.20;;;;;;;26.17;21.58;94691.25;5055279;28;20047;-47
2021/05/08 07:46:12;;;;;;;3.92;2.40;;;;;;;26.79;20.94;94690.28;5055450;28;20037;-47
2021/05/08 07:48:39;;;;;;;2.30;2.10;;;;;;;27.43;19.96;94688.41;5057406;28;20053;-47
2021/05/08 07:51:06;;;;;;;3.33;2.10;;;;;;;26.04;21.65;94692.75;5056475;28;20045;-48
2021/05/08 07:53:33;;;;;;;2.20;2.00;;;;;;;26.16;21.36;94684.38;5056676;28;20049;-47
2021/05/08 07:56:00;;;;;;;3.05;2.10;;;;;;;26.41;21.77;94682.56;5055337;28;20048;-48
2021/05/08 07:58:27;;;;;;;5.80;2.33;;;;;;;26.65;21.75;94686.44;5056391;28;20052;-55
2021/05/08 08:00:55;;;;;;;4.75;3.20;;;;;;;27.42;20.66;94676.13;5057087;28;20060;-47
2021/05/08 08:03:22;;;;;;;2.53;2.20;;;;;;;26.94;20.87;94681.88;5057375;28;20049;-48
2021/05/08 08:05:49;;;;;;;2.15;1.95;;;;;;;27.75;20.22;94682.22;5054773;28;20041;-47
2021/05/08 08:08:16;;;;;;;4.15;2.08;;;;;;;26.92;20.81;94692.22;5057312;28;20049;-47
2021/05/08 08:10:43;;;;;;;3.08;2.10;;;;;;;27.52;20.16;94688.75;5056690;28;20045;-47
2021/05/08 08:13:10;;;;;;;2.95;2.72;;;;;;;27.50;20.16;94693.00;5055755;28;20040;-47
2021/05/08 08:15:37;;;;;;;3.22;2.40;;;;;;;26.73;21.30;94685.28;5056882;28;20468;-52
2021/05/08 08:18:09;;;;;;;2.50;2.30;;;;;;;26.93;20.74;94688.38;5056827;28;20064;-47
2021/05/08 08:20:36;;;;;;;3.55;2.72;;;;;;;27.34;20.11;94693.41;5054696;28;20056;-49
2021/05/08 08:23:03;;;;;;;2.70;2.50;;;;;;;26.36;20.71;94696.34;5056503;28;20052;-51
2021/05/08 08:25:30;;;;;;;2.78;2.15;;;;;;;26.41;21.39;94695.97;5055823;28;20360;-47
2021/05/08 08:27:57;;;;;;;2.70;2.38;;;;;;;27.48;20.39;94689.94;5075192;22;20362;-48
2021/05/08 08:30:24;;;;;;;2.60;2.40;;;;;;;28.02;19.90;94690.59;5076564;28;20044;-49
2021/05/08 08:32:52;;;;;;;2.53;2.13;;;;;;;26.68;20.84;94698.31;5076144;28;20419;-48
2021/05/08 08:35:19;;;;;;;4.05;2.22;;;;;;;27.58;20.41;94700.63;5066534;28;20055;-48
2021/05/08 08:37:46;;;;;;;3.22;2.33;;;;;;;27.64;20.00;94707.19;5060481;28;20051;-53
2021/05/08 08:40:13;;;;;;;4.85;2.50;;;;;;;27.25;20.69;94714.47;5076686;28;20044;-49
2021/05/08 08:42:40;;;;;;;2.88;2.58;;;;;;;28.04;19.75;94710.53;5077136;28;20049;-54
2021/05/08 08:45:08;;;;;;;6.72;2.67;;;;;;;27.19;20.90;94711.41;5076817;28;20052;-56
2021/05/08 08:47:35;;;;;;;4.38;3.60;;;;;;;28.48;19.12;94695.78;5071588;28;20040;-49
2021/05/08 08:50:09;;;;;;;4.78;4.22;;;;;;;27.66;20.53;94689.94;5076488;28;20099;-49
2021/05/08 08:52:37;;;;;;;6.53;5.40;;;;;;;28.37;19.17;94690.47;5076565;28;20040;-54
2021/05/08 08:55:07;;;;;;;4.60;4.20;;;;;;;26.79;21.45;94687.59;5076206;28;20060;-48
2021/05/08 08:57:38;;;;;;;3.10;2.80;;;;;;;28.10;20.07;94681.31;5075475;28;20063;-54
2021/05/08 09:00:10;;;;;;;4.07;3.47;;;;;;;27.19;21.41;94694.56;5075843;28;20051;-50
2021/05/08 09:02:40;;;;;;;3.20;2.90;;;;;;;27.78;20.34;94698.31;5076268;28;20062;-48
2021/05/08 09:05:11;;;;;;;3.63;3.05;;;;;;;27.60;20.45;94686.84;5076116;28;20063;-49
2021/05/08 09:07:42;;;;;;;2.70;2.50;;;;;;;28.05;19.85;94701.31;5075716;28;20041;-48
2021/05/08 09:10:20;;;;;;;2.95;2.75;;;;;;;28.20;19.87;94694.75;5058539;28;20055;-53
2021/05/08 09:12:48;;;;;;;2.80;2.60;;;;;;;27.62;20.12;94701.44;5066847;28;20045;-48
2021/05/08 09:15:35;;;;;;;3.58;3.22;;;;;;;28.01;19.84;94697.88;5072297;28;20048;-48
2021/05/08 09:18:03;;;;;;;3.50;3.17;;;;;;;27.78;19.50;94698.31;5074000;28;20056;-49
2021/05/08 09:20:50;;;;;;;4.75;2.75;;;;;;;27.87;19.44;94696.00;5075845;28;20051;-46
2021/05/08 09:23:30;;;;;;;24.95;17.90;;;;;;;29.05;18.92;94684.69;5051021;28;20071;-53
2021/05/08 09:26:02;;;;;;;7.60;5.85;;;;;;;29.44;17.99;94681.66;5075519;28;20048;-55
2021/05/08 09:28:29;;;;;;;3.90;2.80;;;;;;;29.17;18.57;94676.91;5067542;28;20060;-49
2021/05/08 09:30:57;;;;;;;5.70;2.53;;;;;;;29.73;18.32;94674.09;5074455;28;20435;-53
2021/05/08 09:33:26;;;;;;;2.50;2.30;;;;;;;28.84;19.22;94680.19;5074998;28;20059;-49
2021/05/08 09:36:02;;;;;;;2.28;2.08;;;;;;;29.67;17.87;94675.72;5075297;28;20052;-50
2021/05/08 09:38:33;;;;;;;2.70;2.35;;;;;;;29.15;18.82;94675.78;5075347;28;20044;-51
2021/05/08 09:41:01;;;;;;;2.80;2.17;;;;;;;28.48;18.99;94669.66;5067012;28;20044;-47
2021/05/08 09:43:30;;;;;;;4.30;1.90;;;;;;;30.45;17.11;94674.00;5074873;28;20044;-49
2021/05/08 09:45:58;;;;;;;4.10;2.05;;;;;;;29.04;18.63;94678.53;5072649;28;20060;-49
2021/05/08 09:48:36;;;;;;;5.18;2.13;;;;;;;28.79;18.57;94672.53;5057060;28;20049;-48
2021/05/08 09:51:28;;;;;;;2.22;2.00;;;;;;;29.44;18.71;94666.31;5070451;28;20052;-54
2021/05/08 09:54:11;;;;;;;2.77;1.70;;;;;;;29.35;18.57;94676.72;5075592;28;20051;-48
2021/05/08 09:56:40;;;;;;;3.10;2.30;;;;;;;29.64;18.29;94676.47;5074667;28;20045;-50
2021/05/08 09:59:38;;;;;;;2.00;1.80;;;;;;;30.09;17.97;94674.47;5075199;28;20044;-53
2021/05/08 10:02:09;;;;;;;3.85;2.10;;;;;;;31.69;18.13;94682.91;5069119;28;20052;-53
2021/05/08 10:04:43;;;;;;;3.00;2.40;;;;;;;32.05;16.41;94676.88;5072719;28;20044;-52
2021/05/08 10:07:23;;;;;;;4.88;2.38;;;;;;;32.10;15.87;94673.66;5073452;28;20044;-48
2021/05/08 10:09:51;;;;;;;6.55;2.80;;;;;;;33.56;15.41;94695.56;5072045;28;20041;-52
2021/05/08 10:12:20;;;;;;;25.05;22.75;;;;;;;35.58;12.99;94685.44;5074257;28;20366;-52
2021/05/08 10:14:53;;;;;;;4.82;3.83;;;;;;;33.29;15.13;94678.78;5074042;28;20450;-51
2021/05/08 10:17:23;;;;;;;2.78;2.40;;;;;;;34.82;13.96;94678.13;5072270;28;20509;-51
2021/05/08 10:19:52;;;;;;;3.00;2.15;;;;;;;32.85;14.48;94677.53;5074183;28;20047;-45
2021/05/08 10:22:19;;;;;;;3.92;1.70;;;;;;;32.44;14.50;94674.13;5074469;28;20048;-48
2021/05/08 10:24:47;;;;;;;1.90;1.55;;;;;;;31.57;15.54;94675.41;5073362;28;20450;-47
2021/05/08 10:27:16;;;;;;;2.72;1.50;;;;;;;31.64;15.46;94664.47;5071452;28;20048;-53
2021/05/08 10:29:47;;;;;;;2.30;1.40;;;;;;;31.66;15.31;94667.53;5074216;28;20051;-44
2021/05/08 10:32:16;;;;;;;4.30;1.48;;;;;;;31.58;15.02;94666.91;5055762;28;20044;-44
2021/05/08 10:35:02;;;;;;;2.95;1.58;;;;;;;30.65;15.78;94666.81;5073018;28;20048;-44
2021/05/08 10:37:30;;;;;;;1.88;1.40;;;;;;;31.39;15.11;94666.84;5072460;28;20059;-45
2021/05/08 10:40:03;;;;;;;1.77;1.30;;;;;;;30.98;15.34;94663.25;5072129;28;20048;-43
2021/05/08 10:42:31;;;;;;;2.40;1.65;;;;;;;30.68;15.32;94666.78;5074231;28;20041;-44
2021/05/08 10:44:59;;;;;;;3.25;1.33;;;;;;;31.10;14.66;94659.19;5076253;28;20063;-46
2021/05/08 10:47:55;;;;;;;3.72;1.50;;;;;;;31.44;14.58;94667.13;5076990;28;20045;-46
2021/05/08 10:50:37;;;;;;;1.38;1.20;;;;;;;31.11;15.08;94663.44;5077324;28;20332;-44
2021/05/08 10:53:11;;;;;;;4.43;1.40;;;;;;;31.54;14.95;94668.13;5075614;28;20339;-45
2021/05/08 10:55:58;;;;;;;2.70;1.50;;;;;;;31.40;14.66;94677.25;5077701;28;20045;-46
2021/05/08 10:58:27;;;;;;;1.75;1.27;;;;;;;31.28;14.73;94673.22;5077198;28;20083;-44
2021/05/08 11:01:04;;;;;;;2.97;1.60;;;;;;;30.95;14.93;94679.50;5077772;28;20487;-43
2021/05/08 11:03:46;;;;;;;2.20;1.40;;;;;;;31.13;14.94;94673.81;5077585;28;20059;-45
2021/05/08 11:06:15;;;;;;;1.98;1.63;;;;;;;31.73;14.41;94672.81;5077225;28;20447;-58
2021/05/08 11:08:46;;;;;;;2.40;1.38;;;;;;;31.50;14.12;94681.72;5077764;28;20381;-51
2021/05/08 11:11:17;;;;;;;6.18;1.55;;;;;;;31.35;14.68;94674.25;5077646;28;20044;-44
2021/05/08 11:13:48;;;;;;;1.80;1.30;;;;;;;31.29;14.67;94676.69;5077317;28;20053;-44
2021/05/08 11:16:18;;;;;;;2.47;1.30;;;;;;;31.67;14.89;94679.09;5077178;28;20297;-44
2021/05/08 11:18:53;;;;;;;2.13;1.40;;;;;;;32.37;13.55;94665.41;5077364;28;20052;-44
2021/05/08 11:21:21;;;;;;;4.05;1.35;;;;;;;31.67;13.67;94663.63;5058121;28;20428;-44
2021/05/08 11:23:52;;;;;;;2.40;1.38;;;;;;;32.02;13.98;94658.78;5077095;28;20053;-45
2021/05/08 11:26:28;;;;;;;2.17;1.50;;;;;;;32.04;13.80;94662.59;5075555;28;20044;-44
2021/05/08 11:29:05;;;;;;;2.47;1.50;;;;;;;31.49;14.13;94663.97;5076028;28;20056;-44
2021/05/08 11:31:52;;;;;;;2.55;1.40;;;;;;;31.80;14.51;94664.59;5077228;28;20048;-44
2021/05/08 11:34:21;;;;;;;2.67;1.40;;;;;;;32.53;13.65;94661.97;5076574;28;20051;-44
2021/05/08 11:37:11;;;;;;;1.80;1.40;;;;;;;31.98;14.04;94645.31;5076889;28;20363;-45
2021/05/08 11:39:38;;;;;;;2.47;1.42;;;;;;;32.24;14.66;94657.16;5075178;28;20059;-45
2021/05/08 11:42:16;;;;;;;3.25;1.67;;;;;;;32.74;13.60;94650.69;5076962;28;20052;-45
2021/05/08 11:44:54;;;;;;;2.50;1.40;;;;;;;32.35;14.05;94646.91;5075506;28;20055;-43